Time;durP1;ratioP1;P1;durP2;ratioP2;P2;SDS_P1;SDS_P2;PMS_P1;PMS_P2;Temp;Humidity;BMP_temperature;BMP_pressure;BME280_temperature;BME280_humidity;BME280_pressure;Samples;Min_cycle;Max_cycle;Signal;HPM_P1;HPM_P2
2022/08/24 00:01:26;;;;;;;17.07;3.35;;;;;;;22.46;62.04;101168.13;1744515;81;25724;-60
2022/08/24 00:04:01;;;;;;;13.85;2.90;;;;;;;22.42;62.15;101175.59;1749644;81;25771;-60
2022/08/24 00:06:27;;;;;;;16.65;4.50;;;;;;;22.41;62.20;101174.77;1741403;82;25907;-60
2022/08/24 00:08:55;;;;;;;12.35;3.35;;;;;;;22.38;62.48;101181.16;1752070;81;25768;-60
2022/08/24 00:11:22;;;;;;;7.22;2.87;;;;;;;22.36;62.63;101167.12;1763820;81;28462;-60
2022/08/24 00:13:51;;;;;;;11.60;3.20;;;;;;;22.35;62.60;101165.44;1754471;81;26161;-60
2022/08/24 00:16:19;;;;;;;15.20;7.78;;;;;;;22.33;62.80;101161.22;1740764;81;25765;-61
2022/08/24 00:18:47;;;;;;;12.15;3.00;;;;;;;22.25;63.04;101156.75;1753690;81;25704;-60
2022/08/24 00:21:15;;;;;;;15.75;3.15;;;;;;;22.15;63.63;101141.20;1750953;81;25725;-60
2022/08/24 00:23:42;;;;;;;18.67;3.37;;;;;;;22.06;64.04;101140.55;1734269;81;27492;-60
2022/08/24 00:26:11;;;;;;;13.38;3.15;;;;;;;22.01;64.04;101141.67;1733734;82;25789;-60
2022/08/24 00:28:38;;;;;;;7.40;2.65;;;;;;;21.99;64.18;101130.92;1744253;81;25831;-61
2022/08/24 00:31:06;;;;;;;12.33;3.75;;;;;;;21.98;64.19;101127.03;1745333;81;26781;-60
2022/08/24 00:33:33;;;;;;;13.53;3.20;;;;;;;21.93;64.43;101121.30;1746826;81;26498;-60
2022/08/24 00:36:00;;;;;;;18.48;3.33;;;;;;;21.89;64.65;101124.46;1733231;81;27697;-60
2022/08/24 00:38:27;;;;;;;12.45;3.30;;;;;;;21.87;64.58;101116.14;1754757;81;25830;-60
2022/08/24 00:40:55;;;;;;;13.58;3.05;;;;;;;21.85;64.91;101116.86;1758965;81;25501;-60
2022/08/24 00:43:25;;;;;;;10.40;3.05;;;;;;;21.80;65.15;101111.13;1742609;81;25840;-60
2022/08/24 00:46:18;;;;;;;15.35;2.65;;;;;;;21.77;64.98;101100.06;1759162;81;25680;-60
2022/08/24 00:48:50;;;;;;;7.92;2.95;;;;;;;21.78;65.12;101100.38;1722889;82;27498;-60
2022/08/24 00:51:29;;;;;;;15.40;3.47;;;;;;;21.78;64.75;101079.02;1727636;81;25468;-61
2022/08/24 00:54:01;;;;;;;8.83;2.95;;;;;;;21.82;64.71;101075.67;1746857;81;25820;-60
2022/08/24 00:56:34;;;;;;;11.88;3.42;;;;;;;21.88;64.48;101074.84;1749493;81;26053;-59
2022/08/24 00:59:13;;;;;;;12.28;3.50;;;;;;;21.90;64.61;101073.26;1747357;80;25756;-60
2022/08/24 01:01:43;;;;;;;12.30;3.12;;;;;;;21.95;64.56;101075.39;1720207;81;27092;-58
2022/08/24 01:04:15;;;;;;;9.23;2.58;;;;;;;22.05;64.50;101073.11;1739137;81;25777;-59
2022/08/24 01:06:42;;;;;;;7.67;2.80;;;;;;;22.08;64.46;101072.72;1746686;81;25680;-61
2022/08/24 01:09:09;;;;;;;6.90;2.10;;;;;;;22.09;64.36;101065.33;1732407;82;25929;-59
2022/08/24 01:11:37;;;;;;;10.75;2.58;;;;;;;22.08;64.23;101062.27;1750953;81;25715;-60
2022/08/24 01:14:06;;;;;;;11.33;2.62;;;;;;;22.07;64.41;101063.31;1753300;81;27524;-59
2022/08/24 01:19:50;;;;;;;13.38;3.40;;;;;;;22.16;64.25;101056.59;1746185;81;25720;-61
2022/08/24 01:22:43;;;;;;;10.05;2.40;;;;;;;22.10;64.07;101054.15;1744598;81;25867;-60
2022/08/24 01:25:11;;;;;;;14.00;2.80;;;;;;;22.10;64.33;101045.10;1733727;81;25921;-59
2022/08/24 01:27:42;;;;;;;11.53;2.72;;;;;;;22.16;64.49;101041.02;1732863;82;27559;-59
2022/08/24 01:30:13;;;;;;;11.35;2.35;;;;;;;22.22;64.57;101046.70;1734243;82;25770;-58
2022/08/24 01:32:43;;;;;;;15.70;2.90;;;;;;;22.24;64.40;101042.70;1735227;81;25773;-60
2022/08/24 01:35:10;;;;;;;9.28;2.52;;;;;;;22.26;64.20;101037.87;1738118;81;25911;-59
2022/08/24 01:37:38;;;;;;;6.47;2.60;;;;;;;22.22;64.37;101039.86;1747011;81;25784;-59
2022/08/24 01:40:07;;;;;;;14.55;3.02;;;;;;;22.19;64.19;101039.21;1756175;81;27659;-59
2022/08/24 01:42:35;;;;;;;9.48;2.75;;;;;;;22.22;64.18;101037.12;1755762;81;25694;-59
2022/08/24 01:45:05;;;;;;;18.15;2.85;;;;;;;22.16;63.86;101042.89;1762617;81;25720;-59
2022/08/24 01:47:32;;;;;;;8.05;2.95;;;;;;;22.12;63.96;101043.01;1761274;81;26725;-59
2022/08/24 01:50:01;;;;;;;12.88;2.80;;;;;;;22.12;64.01;101047.95;1755979;81;25741;-60
2022/08/24 01:52:28;;;;;;;12.88;2.70;;;;;;;22.13;64.00;101049.64;1744894;81;27619;-60
2022/08/24 01:54:55;;;;;;;13.85;3.33;;;;;;;22.14;63.96;101044.48;1737468;81;25737;-60
2022/08/24 01:57:25;;;;;;;11.95;3.00;;;;;;;22.13;63.89;101043.33;1733677;82;25695;-59
2022/08/24 01:59:53;;;;;;;11.93;2.85;;;;;;;22.13;63.82;101044.70;1734360;81;25966;-59
2022/08/24 02:02:25;;;;;;;15.70;3.17;;;;;;;22.11;63.83;101044.05;1734132;82;25915;-61
2022/08/24 02:04:52;;;;;;;15.93;3.00;;;;;;;22.13;63.96;101048.81;1734416;82;27484;-60
2022/08/24 02:07:20;;;;;;;6.97;2.42;;;;;;;22.09;63.92;101053.86;1741829;82;25713;-60
2022/08/24 02:09:49;;;;;;;8.70;3.17;;;;;;;22.09;64.10;101055.73;1744864;82;25807;-60
2022/08/24 02:12:17;;;;;;;15.40;2.83;;;;;;;22.07;64.29;101051.84;1738184;82;25872;-60
2022/08/24 02:14:47;;;;;;;7.53;2.47;;;;;;;22.07;64.55;101058.69;1738280;81;25797;-61
2022/08/24 02:17:14;;;;;;;9.25;2.00;;;;;;;22.07;64.82;101050.98;1797706;79;28407;-60
2022/08/24 02:19:42;;;;;;;8.63;2.90;;;;;;;22.07;64.90;101051.84;1798950;79;25867;-60
2022/08/24 02:22:08;;;;;;;10.88;2.45;;;;;;;22.09;65.02;101042.04;1798848;79;25722;-60
2022/08/24 02:24:37;;;;;;;14.05;4.97;;;;;;;22.10;64.98;101040.98;1795544;79;27969;-61
2022/08/24 02:27:04;;;;;;;10.08;2.95;;;;;;;22.11;65.23;101042.69;1789269;79;25655;-61
2022/08/24 02:29:32;;;;;;;10.13;2.75;;;;;;;22.10;65.33;101043.19;1802323;79;27482;-60
2022/08/24 02:31:58;;;;;;;19.15;3.27;;;;;;;22.06;65.44;101033.72;1804775;79;26112;-58
2022/08/24 02:34:25;;;;;;;21.93;3.40;;;;;;;22.02;65.51;101025.06;1805069;78;25707;-60
2022/08/24 02:36:52;;;;;;;13.30;2.75;;;;;;;22.03;65.57;101025.39;1799144;79;26045;-60
2022/08/24 02:39:20;;;;;;;17.27;3.60;;;;;;;22.03;65.57;101021.79;1798587;79;25706;-60
2022/08/24 02:41:48;;;;;;;12.90;2.92;;;;;;;22.04;65.73;101018.86;1798209;78;27541;-60
2022/08/24 02:44:15;;;;;;;10.85;2.50;;;;;;;22.08;65.89;101015.19;1776773;79;26566;-59
2022/08/24 02:46:42;;;;;;;10.65;2.45;;;;;;;22.05;65.91;101010.94;1798146;79;25732;-59
2022/08/24 02:49:11;;;;;;;11.40;2.92;;;;;;;21.98;65.97;101016.92;1812403;79;25799;-59
2022/08/24 02:51:43;;;;;;;19.07;3.52;;;;;;;21.94;66.07;101027.99;1811392;79;25717;-59
2022/08/24 02:54:12;;;;;;;17.07;3.05;;;;;;;21.91;66.05;101029.77;1802259;78;27501;-59
2022/08/24 02:56:39;;;;;;;14.38;2.90;;;;;;;21.89;66.25;101028.61;1799752;78;25846;-60
2022/08/24 02:59:06;;;;;;;10.58;3.02;;;;;;;21.91;66.39;101030.30;1811322;79;25798;-60
2022/08/24 03:01:33;;;;;;;16.48;3.20;;;;;;;21.82;66.15;101031.86;1773158;80;25703;-60
2022/08/24 03:03:59;;;;;;;15.45;2.95;;;;;;;21.71;66.20;101029.16;1770590;80;25794;-60
2022/08/24 03:06:26;;;;;;;9.73;2.85;;;;;;;21.68;66.63;101041.91;1742534;81;28324;-60
2022/08/24 03:08:53;;;;;;;8.00;3.87;;;;;;;21.68;66.65;101041.04;1750956;80;26681;-60
2022/08/24 03:11:21;;;;;;;7.10;2.75;;;;;;;21.63;66.74;101039.45;1700791;83;25721;-61
2022/08/24 03:13:48;;;;;;;14.18;3.40;;;;;;;21.58;66.75;101035.95;1753746;80;25920;-61
2022/08/24 03:16:16;;;;;;;9.13;2.67;;;;;;;21.53;67.08;101032.42;1799841;79;25599;-58
2022/08/24 03:18:43;;;;;;;12.45;2.70;;;;;;;21.49;67.03;101037.14;1772059;79;27441;-58
2022/08/24 03:21:10;;;;;;;11.73;2.77;;;;;;;21.43;67.38;101038.25;1742449;82;25992;-58
2022/08/24 03:23:39;;;;;;;10.72;3.08;;;;;;;21.37;68.15;101036.86;1754622;80;25681;-57
2022/08/24 03:26:06;;;;;;;8.98;2.67;;;;;;;21.28;68.23;101043.55;1731628;82;25794;-60
2022/08/24 03:28:33;;;;;;;11.95;2.62;;;;;;;21.18;68.65;101047.48;1759570;81;26319;-59
2022/08/24 03:31:00;;;;;;;17.50;2.70;;;;;;;21.14;68.60;101050.27;1755420;81;27625;-60
2022/08/24 03:33:28;;;;;;;15.98;2.60;;;;;;;21.09;68.87;101053.61;1749587;81;25979;-61
2022/08/24 03:35:55;;;;;;;17.17;2.67;;;;;;;21.08;68.82;101055.19;1799497;79;25683;-59
2022/08/24 03:38:22;;;;;;;8.65;2.80;;;;;;;21.10;68.94;101055.84;1811045;79;25712;-60
2022/08/24 03:40:52;;;;;;;9.60;3.10;;;;;;;21.08;69.63;101059.29;1773835;80;25772;-60
2022/08/24 03:46:08;;;;;;;12.80;2.62;;;;;;;21.00;69.46;101060.80;1773464;80;25732;-60
2022/08/24 03:48:35;;;;;;;12.93;2.92;;;;;;;20.97;69.49;101066.66;1747504;80;25823;-60
2022/08/24 03:51:02;;;;;;;13.08;3.42;;;;;;;20.97;69.83;101070.26;1772201;80;25793;-60
2022/08/24 03:53:31;;;;;;;18.02;3.10;;;;;;;21.01;69.98;101071.53;1770611;79;25772;-60
2022/08/24 03:55:59;;;;;;;9.60;2.47;;;;;;;21.05;70.12;101070.11;1731968;82;27493;-60
2022/08/24 03:58:26;;;;;;;10.53;2.77;;;;;;;21.09;70.95;101067.82;1736619;81;25934;-60
2022/08/24 04:00:54;;;;;;;14.05;2.95;;;;;;;21.02;70.99;101067.77;1768654;80;26353;-60
2022/08/24 04:03:21;;;;;;;11.73;2.70;;;;;;;21.00;70.81;101064.37;1769190;81;26383;-60
2022/08/24 04:05:48;;;;;;;15.50;3.22;;;;;;;21.02;70.83;101060.92;1782491;79;27272;-60
2022/08/24 04:08:15;;;;;;;10.48;2.62;;;;;;;21.01;70.90;101067.97;1773056;80;27311;-60
2022/08/24 04:10:45;;;;;;;17.45;3.47;;;;;;;21.05;70.93;101076.09;1770187;80;26121;-60
2022/08/24 04:13:13;;;;;;;11.05;3.08;;;;;;;21.01;70.96;101070.17;1766270;81;25890;-60
2022/08/24 04:15:42;;;;;;;9.60;2.40;;;;;;;21.07;71.09;101071.27;1766577;81;26659;-62
2022/08/24 04:18:10;;;;;;;12.37;3.08;;;;;;;21.15;71.17;101075.22;1769424;80;25469;-60
2022/08/24 04:20:42;;;;;;;16.32;3.20;;;;;;;21.23;71.19;101079.70;1773060;80;28270;-60
2022/08/24 04:23:13;;;;;;;14.68;3.77;;;;;;;21.28;71.15;101080.48;1770855;79;25791;-60
2022/08/24 04:25:44;;;;;;;15.78;2.70;;;;;;;21.34;71.19;101076.93;1770494;80;25786;-60
2022/08/24 04:28:14;;;;;;;13.10;3.52;;;;;;;21.38;71.16;101083.70;1770583;80;26638;-60
2022/08/24 04:30:44;;;;;;;14.18;3.15;;;;;;;21.43;71.08;101074.36;1755605;80;26005;-60
2022/08/24 04:33:13;;;;;;;10.70;2.20;;;;;;;21.50;71.00;101072.50;1759629;80;27640;-61
2022/08/24 04:35:44;;;;;;;11.25;2.90;;;;;;;21.56;71.00;101074.42;1769132;80;25768;-60
2022/08/24 04:38:11;;;;;;;13.13;2.83;;;;;;;21.61;70.73;101067.55;1770847;80;25840;-61
2022/08/24 04:40:43;;;;;;;16.30;2.90;;;;;;;21.69;70.99;101065.50;1770061;80;26093;-60
2022/08/24 04:43:13;;;;;;;8.63;2.92;;;;;;;21.77;70.76;101063.63;1767446;80;25727;-60
2022/08/24 04:45:46;;;;;;;7.92;3.25;;;;;;;21.85;70.57;101066.20;1770509;80;28369;-60
2022/08/24 04:48:15;;;;;;;10.72;2.60;;;;;;;21.92;70.55;101062.12;1771004;80;25767;-60
2022/08/24 04:50:43;;;;;;;22.58;4.00;;;;;;;22.01;70.38;101068.57;1770867;80;25813;-60
2022/08/24 04:53:13;;;;;;;22.93;4.22;;;;;;;22.04;69.86;101071.42;1771025;80;26055;-61
2022/08/24 04:55:49;;;;;;;17.80;3.55;;;;;;;22.11;69.69;101072.28;1784830;78;25751;-59
2022/08/24 04:58:18;;;;;;;18.70;3.72;;;;;;;22.16;69.23;101076.64;1740915;80;28304;-60
2022/08/24 05:00:46;;;;;;;23.75;3.95;;;;;;;22.19;68.82;101075.38;1809108;78;25731;-61
2022/08/24 05:03:14;;;;;;;20.75;4.47;;;;;;;22.16;68.40;101071.16;1783550;79;25882;-60
2022/08/24 05:05:44;;;;;;;122.67;8.65;;;;;;;22.19;67.60;101071.27;1802123;79;26767;-60
2022/08/24 05:08:15;;;;;;;19.05;3.77;;;;;;;22.20;67.71;101075.16;1811529;78;25675;-60
2022/08/24 05:10:46;;;;;;;18.05;3.98;;;;;;;22.27;67.66;101078.47;1798190;79;28229;-60
2022/08/24 05:13:15;;;;;;;23.05;5.30;;;;;;;22.34;67.43;101079.31;1793226;79;25770;-61
2022/08/24 05:15:45;;;;;;;27.40;4.17;;;;;;;22.40;66.68;101084.00;1795303;79;25807;-60
2022/08/24 05:18:15;;;;;;;21.20;4.42;;;;;;;22.43;66.15;101077.25;1766464;79;26065;-61
2022/08/24 05:20:45;;;;;;;31.00;5.25;;;;;;;22.49;66.15;101079.17;1729860;82;25817;-60
2022/08/24 05:23:13;;;;;;;26.25;3.62;;;;;;;22.56;66.26;101076.42;1710111;81;28250;-60
2022/08/24 05:25:41;;;;;;;13.53;3.87;;;;;;;22.59;66.21;101070.53;1752969;81;25819;-60
2022/08/24 05:28:08;;;;;;;15.13;3.75;;;;;;;22.64;66.44;101068.00;1756113;80;25740;-61
2022/08/24 05:30:36;;;;;;;24.12;3.92;;;;;;;22.70;66.40;101071.30;1735562;82;26705;-60
2022/08/24 05:33:03;;;;;;;17.98;3.17;;;;;;;22.74;66.03;101064.86;1804459;79;25375;-61
2022/08/24 05:35:30;;;;;;;18.67;3.92;;;;;;;22.79;65.87;101068.66;1765945;80;27599;-60
2022/08/24 05:37:58;;;;;;;27.62;4.17;;;;;;;22.85;65.48;101071.09;1748042;81;26024;-60
2022/08/24 05:40:27;;;;;;;24.45;3.62;;;;;;;22.91;64.93;101074.87;1762984;81;25740;-61
2022/08/24 05:42:55;;;;;;;20.50;3.75;;;;;;;22.90;63.65;101070.47;1739011;81;27149;-61
2022/08/24 05:45:23;;;;;;;20.75;4.12;;;;;;;22.95;63.83;101072.86;1752699;81;25763;-61
2022/08/24 05:47:50;;;;;;;16.15;4.40;;;;;;;23.04;63.57;101073.51;1743619;81;27459;-61
2022/08/24 05:50:36;;;;;;;15.28;3.85;;;;;;;23.07;63.13;101081.33;1732956;81;25653;-61
2022/08/24 05:53:03;;;;;;;25.05;4.83;;;;;;;23.16;63.20;101078.36;1739919;81;25758;-61
2022/08/24 05:55:30;;;;;;;18.75;3.62;;;;;;;23.25;63.46;101081.23;1739504;81;26914;-60
2022/08/24 05:57:58;;;;;;;19.10;3.50;;;;;;;23.33;63.27;101084.27;1808443;78;26214;-61
2022/08/24 06:00:25;;;;;;;21.25;4.35;;;;;;;23.38;63.10;101086.69;1768835;79;27489;-61
2022/08/24 06:02:54;;;;;;;14.18;3.50;;;;;;;23.44;63.14;101083.08;1734716;82;25748;-61
2022/08/24 06:05:21;;;;;;;15.00;4.00;;;;;;;23.47;62.56;101081.83;1813010;78;25770;-61
2022/08/24 06:07:49;;;;;;;21.70;4.00;;;;;;;23.50;62.43;101081.92;1764952;80;26145;-61
2022/08/24 06:10:16;;;;;;;16.73;3.27;;;;;;;23.52;61.23;101077.06;1806003;78;25710;-60
2022/08/24 06:12:44;;;;;;;14.85;3.65;;;;;;;23.57;61.50;101083.60;1773222;79;28263;-61
2022/08/24 06:15:12;;;;;;;12.95;2.98;;;;;;;23.61;61.35;101088.13;1773030;80;25711;-61
2022/08/24 06:17:39;;;;;;;28.40;9.38;;;;;;;23.66;61.03;101086.11;1780951;79;25724;-61
2022/08/24 06:20:08;;;;;;;22.62;4.00;;;;;;;23.68;59.64;101085.34;1787654;79;26980;-60
2022/08/24 06:22:35;;;;;;;14.38;3.62;;;;;;;23.72;59.96;101087.44;1737394;81;25724;-61
2022/08/24 06:27:49;;;;;;;23.40;4.37;;;;;;;23.85;59.40;101077.48;1808263;79;25757;-60
2022/08/24 06:30:16;;;;;;;24.63;4.80;;;;;;;23.87;59.25;101082.23;1805185;79;25598;-61
2022/08/24 06:32:59;;;;;;;20.12;3.72;;;;;;;23.93;59.51;101082.73;1804499;79;26214;-60
2022/08/24 06:35:29;;;;;;;14.75;3.75;;;;;;;24.03;59.34;101080.39;1799324;78;25714;-61
2022/08/24 06:37:57;;;;;;;28.35;4.90;;;;;;;24.11;59.51;101073.81;1805421;79;26999;-62
2022/08/24 06:40:25;;;;;;;24.18;4.85;;;;;;;24.20;59.18;101073.02;1804982;79;25774;-60
2022/08/24 06:42:52;;;;;;;24.70;5.22;;;;;;;24.29;59.06;101074.98;1806929;79;25729;-60
2022/08/24 06:45:24;;;;;;;16.87;4.17;;;;;;;24.36;58.82;101071.11;1813285;78;26229;-60
2022/08/24 06:47:52;;;;;;;24.45;4.15;;;;;;;24.45;58.69;101070.84;1812877;78;27282;-60
2022/08/24 06:50:20;;;;;;;13.55;3.85;;;;;;;24.51;58.31;101079.61;1815471;78;27361;-60
2022/08/24 06:52:48;;;;;;;28.85;4.75;;;;;;;24.58;58.10;101073.52;1817333;78;25807;-61
2022/08/24 06:55:17;;;;;;;21.93;3.75;;;;;;;24.67;57.92;101072.22;1813919;78;25763;-60
2022/08/24 06:57:44;;;;;;;27.50;3.90;;;;;;;24.74;57.61;101068.05;1776964;80;25842;-60
2022/08/24 07:00:13;;;;;;;31.35;4.97;;;;;;;24.83;57.59;101071.35;1778663;80;25894;-60
2022/08/24 07:02:41;;;;;;;36.15;5.15;;;;;;;24.93;57.28;101055.19;1744114;80;28589;-60
2022/08/24 07:05:09;;;;;;;42.48;5.67;;;;;;;25.05;56.80;101061.34;1752378;81;25767;-60
2022/08/24 07:07:50;;;;;;;38.25;5.58;;;;;;;25.15;56.40;101052.86;1728544;80;25459;-60
2022/08/24 07:10:16;;;;;;;41.08;5.90;;;;;;;25.30;56.05;101055.77;1761442;81;26257;-60
2022/08/24 07:12:43;;;;;;;52.27;8.48;;;;;;;25.40;56.19;101053.92;1761502;81;25479;-60
2022/08/24 07:15:11;;;;;;;53.98;7.17;;;;;;;25.50;54.99;101057.52;1763126;80;28285;-61
2022/08/24 07:17:38;;;;;;;59.67;7.25;;;;;;;25.58;54.76;101048.42;1763601;79;25922;-60
2022/08/24 07:20:08;;;;;;;47.13;6.83;;;;;;;25.68;54.20;101052.00;1756502;81;25808;-61
2022/08/24 07:22:36;;;;;;;47.55;7.75;;;;;;;25.79;53.38;101044.86;1749756;81;26252;-60
2022/08/24 07:25:06;;;;;;;60.40;7.12;;;;;;;25.88;53.83;101049.54;1743581;80;25479;-60
2022/08/24 07:27:33;;;;;;;54.27;6.90;;;;;;;25.96;53.43;101044.22;1719347;82;27473;-60
2022/08/24 07:30:00;;;;;;;44.60;7.53;;;;;;;26.01;52.86;101047.14;1740728;82;25760;-60
2022/08/24 07:32:28;;;;;;;65.95;7.70;;;;;;;26.11;52.14;101041.09;1809503;78;25888;-60
2022/08/24 07:34:55;;;;;;;44.50;6.72;;;;;;;26.21;51.90;101035.34;1773284;80;26951;-60
2022/08/24 07:37:23;;;;;;;52.48;7.00;;;;;;;26.32;51.44;101039.20;1772904;80;25898;-60
2022/08/24 07:39:50;;;;;;;53.40;7.85;;;;;;;26.43;50.56;101044.98;1772826;80;27453;-60
2022/08/24 07:42:17;;;;;;;57.10;8.13;;;;;;;26.52;50.57;101042.20;1807301;78;25636;-60
2022/08/24 07:44:45;;;;;;;62.08;6.42;;;;;;;26.61;50.28;101047.67;1773604;80;25725;-60
2022/08/24 07:47:13;;;;;;;52.48;8.05;;;;;;;26.70;50.13;101042.64;1772975;80;43979;-60
2022/08/24 07:49:41;;;;;;;60.70;6.80;;;;;;;26.78;50.10;101040.11;1751982;79;26586;-60
2022/08/24 07:52:09;;;;;;;72.12;7.60;;;;;;;26.83;50.05;101042.45;1741126;82;27466;-60
2022/08/24 07:54:37;;;;;;;61.48;6.80;;;;;;;26.91;50.12;101034.90;1756280;80;25755;-60
2022/08/24 07:57:05;;;;;;;58.13;7.30;;;;;;;26.99;49.34;101041.44;1774677;80;25810;-61
2022/08/24 07:59:35;;;;;;;43.17;6.15;;;;;;;27.03;49.08;101045.38;1780772;80;26796;-60
2022/08/24 08:02:04;;;;;;;51.77;7.00;;;;;;;27.08;48.62;101036.38;1771817;80;25853;-60
2022/08/24 08:04:31;;;;;;;53.05;6.78;;;;;;;27.17;48.57;101028.89;1770403;81;27738;-61
2022/08/24 08:07:00;;;;;;;46.63;6.70;;;;;;;27.32;48.65;101029.78;1769621;81;25744;-60
2022/08/24 08:09:28;;;;;;;45.48;6.08;;;;;;;27.46;47.62;101030.39;1770203;81;25774;-60
2022/08/24 08:11:55;;;;;;;54.98;7.35;;;;;;;27.58;47.66;101027.60;1770399;81;26186;-60
2022/08/24 08:14:22;;;;;;;53.87;7.78;;;;;;;27.70;47.71;101026.19;1747739;81;25787;-60
2022/08/24 08:16:52;;;;;;;50.95;6.70;;;;;;;27.80;47.82;101024.16;1770416;80;29686;-60
2022/08/24 08:19:19;;;;;;;48.50;7.50;;;;;;;27.85;46.79;101028.95;1771493;79;26457;-60
2022/08/24 08:24:33;;;;;;;55.83;6.08;;;;;;;27.99;46.26;101027.59;1717449;80;25741;-58
2022/08/24 08:27:02;;;;;;;58.13;8.10;;;;;;;28.14;45.99;101024.84;1770450;81;26387;-61
2022/08/24 08:29:40;;;;;;;46.85;7.37;;;;;;;28.28;45.02;101028.99;1770083;81;28361;-61
2022/08/24 08:32:16;;;;;;;57.23;6.62;;;;;;;28.40;45.29;101018.68;1770249;81;25831;-61
2022/08/24 08:34:43;;;;;;;52.80;6.92;;;;;;;28.56;44.89;101018.93;1770099;80;25773;-61
2022/08/24 08:37:14;;;;;;;50.33;7.30;;;;;;;28.76;43.64;101011.56;1770571;80;26734;-61
2022/08/24 08:39:43;;;;;;;68.92;8.45;;;;;;;28.93;42.13;101011.53;1767469;80;25708;-60
2022/08/24 08:42:32;;;;;;;43.10;6.90;;;;;;;29.05;40.74;101008.65;1770756;80;27506;-61
2022/08/24 08:45:11;;;;;;;55.25;6.67;;;;;;;29.19;40.89;101009.13;1766969;80;25837;-61
2022/08/24 08:48:19;;;;;;;67.27;6.62;;;;;;;29.34;40.92;101011.30;1768445;81;25764;-60
2022/08/24 08:51:14;;;;;;;71.62;6.60;;;;;;;29.45;39.38;101008.97;1748222;81;25907;-61
2022/08/24 08:54:12;;;;;;;50.55;6.80;;;;;;;29.66;39.54;101013.39;1770349;81;25831;-59
2022/08/24 08:57:00;;;;;;;55.52;6.50;;;;;;;29.83;39.41;101011.91;1770140;81;27447;-59
2022/08/24 08:59:47;;;;;;;49.67;6.00;;;;;;;30.00;38.03;101016.02;1770029;81;26212;-60
2022/08/24 09:02:53;;;;;;;38.17;5.37;;;;;;;30.11;38.21;101008.62;1769888;81;25786;-59
2022/08/24 09:05:50;;;;;;;46.75;7.12;;;;;;;30.31;38.75;101008.54;1770087;81;25697;-61
2022/08/24 09:09:05;;;;;;;48.10;7.53;;;;;;;30.60;38.88;101013.26;1768898;80;27485;-60
2022/08/24 09:12:14;;;;;;;42.03;6.50;;;;;;;30.83;36.43;101013.44;1770264;81;27467;-61
2022/08/24 09:15:03;;;;;;;32.75;5.87;;;;;;;30.96;35.05;101014.09;1770177;81;25760;-60
2022/08/24 09:17:46;;;;;;;40.80;5.72;;;;;;;31.14;35.54;101011.44;1770003;81;25881;-61
2022/08/24 09:20:53;;;;;;;37.53;4.72;;;;;;;31.45;34.62;100999.09;1767807;80;27058;-61
2022/08/24 09:23:42;;;;;;;43.92;6.03;;;;;;;31.65;33.57;101001.94;1767654;81;26136;-60
2022/08/24 09:26:40;;;;;;;26.17;4.35;;;;;;;31.94;33.53;100997.32;1770030;81;28334;-60
2022/08/24 09:29:40;;;;;;;29.63;4.35;;;;;;;32.30;32.86;100997.41;1769857;81;25800;-60
2022/08/24 09:32:18;;;;;;;35.20;5.75;;;;;;;32.62;31.86;100991.27;1766686;80;25826;-60
2022/08/24 09:35:02;;;;;;;41.37;5.40;;;;;;;32.94;31.01;100985.98;1716883;81;26103;-60
2022/08/24 09:37:59;;;;;;;44.95;5.37;;;;;;;33.37;31.20;100985.57;1739754;80;25823;-60
2022/08/24 09:40:44;;;;;;;38.73;5.28;;;;;;;33.94;30.89;100988.09;1745617;81;27481;-59
2022/08/24 09:43:37;;;;;;;40.03;5.83;;;;;;;34.57;28.41;100973.95;1765696;79;25904;-59
2022/08/24 09:46:27;;;;;;;42.45;4.85;;;;;;;34.99;27.88;100978.58;1746129;80;26194;-61
2022/08/24 09:49:11;;;;;;;37.08;5.30;;;;;;;35.32;27.97;100976.80;1731258;81;27096;-61
2022/08/24 09:51:53;;;;;;;46.40;5.97;;;;;;;35.64;26.93;100970.22;1738315;81;25926;-60
2022/08/24 09:54:51;;;;;;;32.17;4.92;;;;;;;35.95;26.24;100969.81;1743973;81;27674;-60
2022/08/24 09:57:43;;;;;;;41.80;5.05;;;;;;;36.26;27.04;100970.73;1763864;79;25723;-61
2022/08/24 10:00:47;;;;;;;38.35;4.83;;;;;;;36.76;26.32;100968.17;1734185;82;25828;-60
2022/08/24 11:07:05;;;;;;;39.80;6.50;;;;;;;41.98;18.03;100934.42;1809194;77;25545;-64
2022/08/24 11:09:55;;;;;;;48.95;5.72;;;;;;;41.96;18.41;100935.95;1771640;80;25765;-63
2022/08/24 11:12:32;;;;;;;36.05;5.85;;;;;;;41.12;19.05;100931.28;1715951;83;29643;-63
2022/08/24 11:15:19;;;;;;;50.95;6.08;;;;;;;41.39;19.13;100929.11;1732440;82;25826;-63
2022/08/24 11:18:02;;;;;;;47.48;6.08;;;;;;;41.70;18.90;100923.67;1727955;81;25817;-62
2022/08/24 11:20:35;;;;;;;50.67;6.20;;;;;;;41.83;18.84;100924.55;1720365;82;25835;-63
2022/08/24 11:23:09;;;;;;;44.53;6.97;;;;;;;41.49;19.19;100926.52;1720372;83;25803;-64
2022/08/24 11:25:41;;;;;;;39.50;5.55;;;;;;;41.23;18.83;100916.22;1712820;82;27572;-63
2022/08/24 11:28:25;;;;;;;36.42;5.60;;;;;;;41.09;18.48;100909.41;1697666;82;25744;-64
2022/08/24 11:30:52;;;;;;;51.30;7.87;;;;;;;41.03;19.53;100916.40;1716637;82;25327;-64
2022/08/24 11:33:33;;;;;;;45.55;7.12;;;;;;;41.36;19.76;100913.45;1716672;83;25762;-64
2022/08/24 11:36:02;;;;;;;45.60;6.35;;;;;;;41.85;18.55;100914.31;1715162;83;25970;-64
2022/08/24 11:38:35;;;;;;;62.98;7.55;;;;;;;41.62;18.64;100913.28;1714078;83;27475;-63
2022/08/24 11:41:19;;;;;;;44.67;7.28;;;;;;;40.88;19.72;100907.94;1716572;83;25613;-64
2022/08/24 11:44:00;;;;;;;59.40;8.00;;;;;;;40.21;19.73;100908.31;1716408;83;26438;-65
2022/08/24 11:46:49;;;;;;;;;;;;;;;40.19;19.71;100901.36;1716494;83;25323;-64
2022/08/24 11:49:21;;;;;;;44.05;7.33;;;;;;;40.36;19.64;100901.91;1719790;83;25989;-65
2022/08/24 11:51:56;;;;;;;48.48;7.58;;;;;;;41.08;19.56;100900.70;1691020;84;27650;-63
2022/08/24 11:54:47;;;;;;;63.70;8.18;;;;;;;41.59;18.23;100899.84;1691127;84;25730;-63
2022/08/24 11:57:32;;;;;;;67.65;7.00;;;;;;;42.00;17.88;100907.22;1708768;82;25737;-66
2022/08/24 12:00:18;;;;;;;66.10;7.37;;;;;;;42.40;18.36;100903.83;1717714;82;25791;-65
2022/08/24 12:03:19;;;;;;;68.33;6.90;;;;;;;43.04;17.56;100905.72;1715471;83;25772;-62
2022/08/24 12:06:03;;;;;;;52.45;6.70;;;;;;;43.54;17.06;100907.87;1715429;83;28498;-65
2022/08/24 12:08:44;;;;;;;40.83;6.70;;;;;;;43.81;15.81;100901.80;1697895;83;25842;-65
2022/08/24 12:11:44;;;;;;;36.95;6.50;;;;;;;43.94;15.64;100909.03;1649346;83;25913;-66
2022/08/24 12:14:40;;;;;;;57.30;7.20;;;;;;;44.18;16.42;100903.05;1719441;83;26538;-64
2022/08/24 12:17:27;;;;;;;48.68;7.47;;;;;;;44.85;15.02;100893.82;1719697;82;25716;-65
2022/08/24 12:20:02;;;;;;;53.65;6.50;;;;;;;44.93;14.44;100904.76;1716601;82;27355;-64
2022/08/24 12:22:31;;;;;;;60.78;7.12;;;;;;;44.84;15.10;100902.94;1707221;82;25909;-64
2022/08/24 12:26:00;;;;;;;59.10;6.40;;;;;;;45.16;14.57;100898.59;1715249;83;25770;-65
2022/08/24 12:27:34;;;;;;;64.32;8.43;;;;;;;44.62;14.59;100902.98;1710920;82;26052;-64
2022/08/24 12:30:10;;;;;;;47.88;6.78;;;;;;;44.21;15.12;100904.55;1708013;83;25916;-63
2022/08/24 12:32:48;;;;;;;67.60;8.90;;;;;;;43.51;15.78;100907.77;1715383;82;27335;-64
2022/08/24 12:35:47;;;;;;;48.95;8.08;;;;;;;42.84;16.16;100912.59;1717153;82;25972;-63
2022/08/24 12:38:27;;;;;;;59.05;7.60;;;;;;;42.34;16.41;100907.47;1719620;83;25715;-63
2022/08/24 12:41:18;;;;;;;67.72;8.10;;;;;;;42.32;16.80;100906.17;1719673;83;25952;-65
2022/08/24 12:43:56;;;;;;;58.83;6.78;;;;;;;43.14;16.74;100900.99;1719436;83;25738;-64
2022/08/24 12:46:25;;;;;;;47.08;6.75;;;;;;;43.95;15.82;100895.09;1719360;83;27522;-63
2022/08/24 12:49:03;;;;;;;62.08;8.58;;;;;;;44.35;15.18;100905.52;1719379;83;25732;-64
2022/08/24 12:52:10;;;;;;;70.10;7.87;;;;;;;44.95;14.49;100900.35;1718662;82;25873;-65
2022/08/24 12:55:20;;;;;;;73.78;8.20;;;;;;;45.57;13.88;100902.53;1716030;83;25798;-64
2022/08/24 12:58:11;;;;;;;66.35;7.33;;;;;;;46.04;13.72;100912.65;1715985;83;25826;-65
2022/08/24 13:00:45;;;;;;;56.08;6.95;;;;;;;46.62;13.19;100915.12;1714969;82;28252;-65
2022/08/24 13:03:35;;;;;;;58.08;6.95;;;;;;;46.86;12.88;100910.45;1716334;82;25756;-65